aviador You're here:

OIIP Decoded Metar

KARAJ/PAYAM in IRAN
Report Time2017-09-25 16:00:00
UTC Time2017-09-25 16:50:50
Flight Rules vfr VFR
Wind320° at 08 kt
W.Decomp.*RWY 30: 7.7 kt HW 2.3 kt RCW
W.Rank320° ranks 1
Current wind is below 320° avg. (10.3)
Visibility9999 m
Phenomena:N/A
Clouds:Few 040 Hf
Expected CloudBase > 10,400 ft AGL from Temp-Dew spread
CeilingNone
Temp24°C (ISA +17)
Dew Point-2°C (18% RH)
AAT18.9°C
QNH1018 hPa
Density Alt6,060 ft
Elevation4,170 ft
Report Wrong Elevation
Raw Report
METAR OIIP 251600Z 32008KT 9999 FEW040 24/M02 Q1018=

Extra information for OIIP:More info

Metar Taf Metar & Taf Last 4 Metars F.Rules Stats Wind Profile Meteogram Temp Stats Airport Information Weather charts Add Link Nearby VenuesMetar ALERT Operation Metar Decoded Social comments